createdAt,value
2019-02-19T00:01:04.906Z,3.90
2019-02-19T00:03:45.926Z,3.80
2019-02-19T00:06:16.356Z,3.80
2019-02-19T00:08:52.329Z,3.70
2019-02-19T00:11:23.794Z,3.70
2019-02-19T00:13:58.716Z,3.70
2019-02-19T00:16:38.069Z,3.50
2019-02-19T00:19:09.426Z,3.50
2019-02-19T00:21:41.698Z,3.40
2019-02-19T00:24:18.578Z,3.30
2019-02-19T00:26:53.096Z,3.20
2019-02-19T00:29:24.455Z,3.10
2019-02-19T00:32:01.585Z,3.00
2019-02-19T00:34:32.116Z,3.00
2019-02-19T00:37:05.233Z,2.90
2019-02-19T00:39:38.362Z,2.80
2019-02-19T00:42:11.108Z,2.70
2019-02-19T00:44:40.972Z,2.60
2019-02-19T00:47:12.648Z,2.50
2019-02-19T00:49:46.332Z,2.50
2019-02-19T00:52:19.535Z,2.40
2019-02-19T00:55:01.071Z,2.30
2019-02-19T00:57:35.114Z,2.30
2019-02-19T01:00:07.331Z,2.20
2019-02-19T01:02:37.393Z,2.20
2019-02-19T01:05:12.554Z,2.20
2019-02-19T01:07:53.146Z,2.20
2019-02-19T01:10:24.276Z,2.20
2019-02-19T01:13:00.450Z,2.20
2019-02-19T01:15:34.268Z,2.20
2019-02-19T01:18:07.064Z,2.20
2019-02-19T01:20:39.823Z,2.20
2019-02-19T01:23:15.067Z,2.20
2019-02-19T01:25:51.337Z,2.30
2019-02-19T01:28:29.856Z,2.40
2019-02-19T01:31:04.074Z,2.40
2019-02-19T01:33:37.861Z,2.50
2019-02-19T01:36:13.697Z,2.60
2019-02-19T01:38:51.273Z,2.70
2019-02-19T01:41:28.342Z,2.80
2019-02-19T01:44:03.426Z,2.80
2019-02-19T01:46:45.218Z,2.90
2019-02-19T01:49:17.847Z,2.90
2019-02-19T01:51:52.956Z,2.90
2019-02-19T01:54:28.461Z,2.90
2019-02-19T01:57:08.846Z,2.90
2019-02-19T01:59:44.084Z,2.80
2019-02-19T02:02:15.058Z,2.80
2019-02-19T02:04:46.941Z,2.70
2019-02-19T02:07:19.042Z,2.70
2019-02-19T02:09:53.409Z,2.60
2019-02-19T02:12:26.919Z,2.60
2019-02-19T02:15:16.467Z,2.50
2019-02-19T02:17:52.161Z,2.50
2019-02-19T02:20:26.663Z,2.50
2019-02-19T02:23:08.474Z,2.60
2019-02-19T02:25:44.707Z,2.80
2019-02-19T02:28:17.209Z,3.00
2019-02-19T02:30:51.075Z,3.20
2019-02-19T02:33:24.893Z,3.30
2019-02-19T02:35:57.078Z,3.50
2019-02-19T02:38:29.621Z,3.60
2019-02-19T02:41:07.022Z,3.70
2019-02-19T02:43:39.802Z,3.80
2019-02-19T02:46:15.463Z,3.90
2019-02-19T02:48:50.843Z,4.00
2019-02-19T02:51:31.396Z,4.00
2019-02-19T02:54:04.907Z,4.10
2019-02-19T02:56:38.243Z,4.20
2019-02-19T02:59:15.049Z,4.30
2019-02-19T03:01:45.608Z,4.40
2019-02-19T03:04:17.460Z,4.40
2019-02-19T03:06:49.366Z,4.50
2019-02-19T03:09:20.775Z,4.50
2019-02-19T03:11:51.898Z,4.60
2019-02-19T03:14:21.705Z,4.70
2019-02-19T03:16:53.273Z,4.70
2019-02-19T03:19:26.442Z,4.70
2019-02-19T03:22:14.566Z,4.70
2019-02-19T03:24:48.313Z,4.70
2019-02-19T03:27:21.509Z,4.70
2019-02-19T03:29:58.179Z,4.70
2019-02-19T03:32:35.816Z,4.70
2019-02-19T03:35:12.948Z,4.80
2019-02-19T03:37:47.913Z,4.80
2019-02-19T03:40:21.239Z,4.80
2019-02-19T03:42:54.723Z,4.80
2019-02-19T03:45:28.902Z,4.80
2019-02-19T03:48:03.372Z,4.80
2019-02-19T03:50:41.727Z,4.80
2019-02-19T03:53:15.900Z,4.80
2019-02-19T03:55:48.797Z,4.70
2019-02-19T03:58:19.506Z,4.70
2019-02-19T04:00:52.772Z,4.70
2019-02-19T04:03:25.911Z,4.80
2019-02-19T04:05:56.363Z,4.80
2019-02-19T04:08:29.215Z,4.80
2019-02-19T04:11:06.524Z,4.80
2019-02-19T04:13:37.838Z,4.80
2019-02-19T04:16:10.276Z,4.80
2019-02-19T04:18:42.636Z,4.80
2019-02-19T04:21:16.320Z,4.80
2019-02-19T04:23:51.675Z,4.80
2019-02-19T04:26:25.782Z,4.80
2019-02-19T04:28:59.909Z,4.70
2019-02-19T04:31:39.647Z,4.70
2019-02-19T04:34:24.414Z,4.60
2019-02-19T04:36:50.260Z,4.50
2019-02-19T04:39:29.323Z,4.40
2019-02-19T04:42:01.709Z,4.30
2019-02-19T04:44:34.602Z,4.20
2019-02-19T04:47:28.474Z,4.20
2019-02-19T04:50:14.854Z,4.10
2019-02-19T04:52:53.972Z,4.10
2019-02-19T04:55:26.259Z,4.00
2019-02-19T04:57:56.954Z,4.00
2019-02-19T05:00:29.732Z,3.90
2019-02-19T05:03:02.422Z,3.80
2019-02-19T05:05:39.230Z,3.80
2019-02-19T05:08:11.241Z,3.70
2019-02-19T05:10:51.091Z,3.70
2019-02-19T05:13:23.204Z,3.60
2019-02-19T05:15:52.074Z,3.50
2019-02-19T05:18:26.030Z,3.50
2019-02-19T05:20:58.770Z,3.50
2019-02-19T05:23:31.979Z,3.50
2019-02-19T05:26:04.123Z,3.40
2019-02-19T05:28:36.298Z,3.40
2019-02-19T05:31:32.542Z,3.30
2019-02-19T05:34:14.038Z,3.20
2019-02-19T05:36:44.973Z,3.20
2019-02-19T05:39:26.306Z,3.10
2019-02-19T05:41:59.082Z,3.10
2019-02-19T05:46:05.669Z,3.10
2019-02-19T05:48:38.142Z,3.10
2019-02-19T05:51:16.404Z,3.10
2019-02-19T05:53:52.700Z,3.10
2019-02-19T05:56:27.719Z,3.10
2019-02-19T05:59:03.609Z,3.10
2019-02-19T06:01:45.664Z,3.10
2019-02-19T06:04:23.722Z,3.10
2019-02-19T06:06:56.079Z,3.10
2019-02-19T06:09:28.928Z,3.00
2019-02-19T06:11:59.899Z,3.00
2019-02-19T06:14:41.618Z,3.00
2019-02-19T06:17:17.839Z,2.90
2019-02-19T06:20:11.781Z,2.90
2019-02-19T06:23:04.935Z,2.90
2019-02-19T06:25:36.922Z,2.80
2019-02-19T06:31:08.366Z,2.80
2019-02-19T06:33:57.307Z,2.70
2019-02-19T06:36:33.998Z,2.70
2019-02-19T06:39:14.571Z,2.70
2019-02-19T06:41:50.717Z,2.60
2019-02-19T06:44:31.103Z,2.60
2019-02-19T06:53:04.815Z,2.60
2019-02-19T06:55:44.995Z,2.60
2019-02-19T06:58:20.466Z,2.60
2019-02-19T07:01:11.647Z,2.60
2019-02-19T07:03:48.303Z,2.70
2019-02-19T07:06:31.774Z,2.70
2019-02-19T07:09:11.379Z,2.70
2019-02-19T07:17:50.275Z,3.00
2019-02-19T07:20:41.470Z,3.30
2019-02-19T07:23:35.540Z,3.70
2019-02-19T07:26:13.600Z,4.20
2019-02-19T07:28:52.405Z,4.70
2019-02-19T07:31:32.467Z,5.20
2019-02-19T07:34:06.521Z,5.80
2019-02-19T07:36:42.493Z,6.40
2019-02-19T07:42:10.825Z,7.10
2019-02-19T07:45:17.938Z,7.50
2019-02-19T07:47:49.477Z,7.90
2019-02-19T07:50:26.075Z,8.10
2019-02-19T07:53:33.701Z,8.30
2019-02-19T08:12:06.784Z,11.40
2019-02-19T08:14:59.903Z,11.70
2019-02-19T08:21:08.279Z,11.00
2019-02-19T08:26:38.595Z,10.40
2019-02-19T08:29:15.837Z,10.20
2019-02-19T08:35:17.957Z,10.50
2019-02-19T08:38:09.368Z,10.80
2019-02-19T08:49:19.723Z,12.20
2019-02-19T08:52:15.563Z,12.60
2019-02-19T08:54:45.169Z,12.60
2019-02-19T09:00:51.425Z,12.50
2019-02-19T09:03:41.084Z,12.40
2019-02-19T09:06:21.131Z,12.20
2019-02-19T09:08:57.983Z,12.00
2019-02-19T09:11:35.079Z,11.80
2019-02-19T09:14:38.775Z,11.70
2019-02-19T09:17:18.487Z,11.80
2019-02-19T09:19:52.735Z,12.00
2019-02-19T09:25:18.112Z,11.80
2019-02-19T09:27:54.542Z,11.80
2019-02-19T09:30:42.881Z,11.70
2019-02-19T09:33:26.890Z,11.50
2019-02-19T09:39:02.087Z,11.60
2019-02-19T09:44:55.328Z,11.70
2019-02-19T09:47:32.675Z,11.50
2019-02-19T09:52:59.938Z,11.70
2019-02-19T09:55:36.094Z,12.00
2019-02-19T09:58:10.469Z,12.20
2019-02-19T10:00:52.585Z,12.20
2019-02-19T10:03:31.395Z,12.10
2019-02-19T10:06:11.249Z,12.20
2019-02-19T10:09:03.330Z,12.20
2019-02-19T10:23:54.430Z,12.40
2019-02-19T10:26:37.908Z,12.40
2019-02-19T10:29:17.087Z,12.40
2019-02-19T10:32:05.936Z,12.50
2019-02-19T10:38:07.900Z,12.30
2019-02-19T10:40:49.085Z,12.20
2019-02-19T10:43:23.501Z,12.10
2019-02-19T10:45:58.022Z,12.10
2019-02-19T10:48:32.509Z,12.00
2019-02-19T10:51:05.750Z,12.00
2019-02-19T10:53:49.549Z,12.00
2019-02-19T10:56:23.277Z,12.00
2019-02-19T10:59:17.351Z,12.20
2019-02-19T11:01:55.131Z,12.20
2019-02-19T11:04:30.063Z,12.30
2019-02-19T11:07:09.539Z,12.30
2019-02-19T11:09:53.701Z,12.10
2019-02-19T11:12:27.653Z,12.20
2019-02-19T11:15:01.121Z,12.30
2019-02-19T11:17:39.782Z,12.30
2019-02-19T11:20:17.111Z,12.50
2019-02-19T11:22:56.859Z,12.60
2019-02-19T11:25:28.616Z,12.60
2019-02-19T11:28:04.765Z,12.60
2019-02-19T11:30:45.176Z,12.70
2019-02-19T11:33:20.014Z,12.60
2019-02-19T11:35:54.877Z,12.50
2019-02-19T11:38:29.051Z,12.50
2019-02-19T11:41:06.507Z,12.40
2019-02-19T11:43:45.553Z,12.50
2019-02-19T11:46:22.874Z,12.50
2019-02-19T11:48:59.901Z,12.50
2019-02-19T11:51:43.985Z,12.50
2019-02-19T11:57:16.393Z,12.20
2019-02-19T11:59:56.129Z,12.10
2019-02-19T12:02:38.085Z,12.10
2019-02-19T12:05:18.048Z,12.10
2019-02-19T12:07:56.729Z,12.10
2019-02-19T12:10:36.445Z,12.00
2019-02-19T12:13:12.068Z,12.00
2019-02-19T12:15:45.051Z,11.80
2019-02-19T12:18:16.476Z,11.70
2019-02-19T12:20:46.818Z,11.60
2019-02-19T12:23:27.625Z,11.70
2019-02-19T12:25:58.169Z,11.50
2019-02-19T12:28:42.101Z,11.50
2019-02-19T12:31:12.423Z,11.50
2019-02-19T12:33:53.095Z,11.50
2019-02-19T12:36:28.060Z,11.60
2019-02-19T12:39:19.515Z,11.70
2019-02-19T12:41:57.166Z,11.80
2019-02-19T12:44:30.869Z,11.80
2019-02-19T12:47:20.448Z,11.70
2019-02-19T12:50:05.931Z,11.40
2019-02-19T12:52:44.611Z,11.10
2019-02-19T12:55:18.189Z,10.80
2019-02-19T12:57:55.681Z,10.50
2019-02-19T13:00:49.027Z,10.30
2019-02-19T13:03:23.515Z,10.00
2019-02-19T13:05:58.190Z,9.80
2019-02-19T13:08:48.049Z,9.60
2019-02-19T13:15:08.932Z,9.20
2019-02-19T13:17:55.618Z,9.00
2019-02-19T13:21:37.175Z,8.90
2019-02-19T13:26:15.511Z,8.60
2019-02-19T13:28:50.707Z,8.40
2019-02-19T13:34:22.790Z,8.10
2019-02-19T13:37:19.052Z,7.90
2019-02-19T13:40:01.293Z,7.80
2019-02-19T13:42:36.485Z,7.70
2019-02-19T13:45:22.017Z,7.60
2019-02-19T13:48:05.851Z,7.50
2019-02-19T13:50:43.465Z,7.40
2019-02-19T13:53:39.822Z,7.30
2019-02-19T13:56:16.674Z,7.30
2019-02-19T13:58:51.070Z,7.20
2019-02-19T14:01:28.952Z,7.20
2019-02-19T14:04:05.290Z,7.20
2019-02-19T14:06:38.858Z,7.20
2019-02-19T14:09:17.417Z,7.20
2019-02-19T14:11:53.868Z,7.10
2019-02-19T14:14:32.540Z,7.10
2019-02-19T14:17:06.342Z,7.10
2019-02-19T14:19:43.812Z,7.00
2019-02-19T14:22:23.789Z,7.00
2019-02-19T14:25:04.448Z,7.00
2019-02-19T14:27:54.831Z,7.10
2019-02-19T14:33:29.992Z,7.00
2019-02-19T14:36:14.256Z,7.00
2019-02-19T14:38:57.110Z,7.00
2019-02-19T14:41:35.050Z,7.00
2019-02-19T14:49:52.141Z,6.90
2019-02-19T14:52:30.400Z,6.90
2019-02-19T14:55:23.228Z,6.90
2019-02-19T14:57:56.695Z,6.90
2019-02-19T15:00:49.098Z,6.90
2019-02-19T15:03:25.239Z,6.90
2019-02-19T15:06:08.963Z,6.80
2019-02-19T15:08:59.489Z,6.80
2019-02-19T15:11:49.750Z,6.80
2019-02-19T15:14:35.681Z,6.80
2019-02-19T15:17:22.874Z,6.80
2019-02-19T15:20:12.498Z,6.80
2019-02-19T15:22:55.679Z,6.80
2019-02-19T15:25:37.290Z,6.80
2019-02-19T15:28:32.891Z,6.80
2019-02-19T15:31:06.860Z,6.70
2019-02-19T15:33:46.466Z,6.70
2019-02-19T15:36:37.460Z,6.60
2019-02-19T15:39:19.214Z,6.60
2019-02-19T15:42:02.679Z,6.60
2019-02-19T15:44:55.107Z,6.60
2019-02-19T15:47:30.927Z,6.60
2019-02-19T15:50:22.298Z,6.60
2019-02-19T15:53:02.411Z,6.60
2019-02-19T15:55:37.753Z,6.60
2019-02-19T15:58:31.867Z,6.60
2019-02-19T16:01:33.791Z,6.50
2019-02-19T16:04:17.242Z,6.50
2019-02-19T16:06:58.760Z,6.50
2019-02-19T16:09:34.309Z,6.50
2019-02-19T16:14:16.238Z,6.50
2019-02-19T16:15:42.018Z,6.50
2019-02-19T16:18:20.716Z,6.50
2019-02-19T16:21:12.232Z,6.40
2019-02-19T16:24:00.664Z,6.40
2019-02-19T16:26:41.455Z,6.40
2019-02-19T16:32:24.618Z,6.40
2019-02-19T16:47:05.917Z,6.40
2019-02-19T16:49:47.147Z,6.30
2019-02-19T16:52:37.951Z,6.30
2019-02-19T16:55:23.443Z,6.40
2019-02-19T16:58:17.917Z,6.40
2019-02-19T17:00:58.423Z,6.40
2019-02-19T17:03:37.309Z,6.40
2019-02-19T17:06:19.876Z,6.40
2019-02-19T17:18:01.601Z,6.40
2019-02-19T17:20:57.099Z,6.30
2019-02-19T17:23:29.345Z,6.30
2019-02-19T17:29:06.473Z,6.30
2019-02-19T17:32:05.148Z,6.30
2019-02-19T17:34:44.776Z,6.30
2019-02-19T17:37:20.498Z,6.30
2019-02-19T17:39:56.051Z,6.30
2019-02-19T17:42:51.625Z,6.30
2019-02-19T17:45:50.754Z,6.30
2019-02-19T17:48:44.401Z,6.30
2019-02-19T17:51:21.050Z,6.30
2019-02-19T17:57:12.846Z,6.30
2019-02-19T18:00:21.629Z,6.30
2019-02-19T18:03:10.308Z,6.30
2019-02-19T18:06:03.234Z,6.30
2019-02-19T18:08:53.459Z,6.30
2019-02-19T18:12:05.576Z,6.30
2019-02-19T18:15:03.509Z,6.30
2019-02-19T18:17:47.839Z,6.30
2019-02-19T18:23:40.470Z,6.30
2019-02-19T18:32:30.226Z,6.20
2019-02-19T18:38:34.287Z,6.20
2019-02-19T18:41:10.727Z,6.20
2019-02-19T18:44:08.760Z,6.20
2019-02-19T18:46:54.168Z,6.10
2019-02-19T18:52:29.831Z,6.00
2019-02-19T18:55:16.177Z,6.00
2019-02-19T18:58:00.217Z,6.00
2019-02-19T19:00:45.794Z,5.90
2019-02-19T19:03:30.561Z,5.90
2019-02-19T19:06:29.537Z,5.90
2019-02-19T19:12:03.577Z,5.80
2019-02-19T19:14:44.370Z,5.70
2019-02-19T19:17:19.929Z,5.60
2019-02-19T19:19:57.613Z,5.60
2019-02-19T19:22:47.080Z,5.60
2019-02-19T19:25:20.564Z,5.50
2019-02-19T19:27:55.557Z,5.50
2019-02-19T19:30:38.056Z,5.50
2019-02-19T19:36:09.177Z,5.40
2019-02-19T19:38:48.736Z,5.40
2019-02-19T19:41:28.116Z,5.40
2019-02-19T19:44:01.570Z,5.40
2019-02-19T19:46:34.250Z,5.40
2019-02-19T19:49:07.780Z,5.40
2019-02-19T19:51:50.994Z,5.40
2019-02-19T19:57:23.744Z,5.40
2019-02-19T20:00:04.723Z,5.40
2019-02-19T20:02:48.725Z,5.40
2019-02-19T20:05:29.307Z,5.40
2019-02-19T20:08:09.076Z,5.40
2019-02-19T20:10:44.925Z,5.40
2019-02-19T20:16:16.764Z,5.40
2019-02-19T20:22:05.908Z,5.30
2019-02-19T20:25:01.737Z,5.30
2019-02-19T20:31:31.232Z,5.20
2019-02-19T20:34:10.993Z,5.20
2019-02-19T20:37:07.008Z,5.20
2019-02-19T20:39:44.131Z,5.20
2019-02-19T20:42:32.833Z,5.10
2019-02-19T20:45:04.097Z,5.10
2019-02-19T20:47:40.435Z,5.10
2019-02-19T20:56:07.157Z,5.10
2019-02-19T21:01:47.480Z,5.10
2019-02-19T21:04:37.940Z,5.20
2019-02-19T21:07:42.065Z,5.10
2019-02-19T21:40:49.491Z,5.10
2019-02-19T22:32:05.458Z,5.40
2019-02-19T22:34:44.021Z,5.40
2019-02-19T22:49:46.164Z,5.30
2019-02-19T22:52:31.057Z,5.30
2019-02-19T22:55:20.644Z,5.30
2019-02-19T23:01:06.360Z,5.30
2019-02-19T23:03:56.974Z,5.30
2019-02-19T23:06:38.768Z,5.30
2019-02-19T23:09:25.786Z,5.30
2019-02-19T23:12:20.154Z,5.30
2019-02-19T23:15:05.594Z,5.30
2019-02-19T23:17:44.720Z,5.30
2019-02-19T23:20:21.109Z,5.30
2019-02-19T23:23:06.954Z,5.30
2019-02-19T23:25:49.845Z,5.30
2019-02-19T23:28:35.585Z,5.30
2019-02-19T23:31:23.409Z,5.30
2019-02-19T23:34:04.718Z,5.30
2019-02-19T23:43:12.015Z,5.30
2019-02-19T23:45:35.756Z,5.30
2019-02-19T23:48:11.309Z,5.30
2019-02-19T23:50:51.372Z,5.30
2019-02-19T23:53:23.139Z,5.30
2019-02-19T23:55:59.171Z,5.30
2019-02-19T23:58:30.903Z,5.30
